sensor_id;sensor_type;location;lat;lon;timestamp;pressure;altitude;pressure_sealevel;temperature;humidity
3096;BME280;1558;42.700;23.360;2023-04-16T00:00:12;94794.78;;;11.47;86.50
3096;BME280;1558;42.700;23.360;2023-04-16T00:02:40;94794.78;;;11.47;86.13
3096;BME280;1558;42.700;23.360;2023-04-16T00:05:09;94789.38;;;11.47;86.05
3096;BME280;1558;42.700;23.360;2023-04-16T00:07:39;94777.25;;;11.41;85.82
3096;BME280;1558;42.700;23.360;2023-04-16T00:10:08;94764.38;;;11.35;86.26
3096;BME280;1558;42.700;23.360;2023-04-16T00:12:36;94783.38;;;11.38;87.25
3096;BME280;1558;42.700;23.360;2023-04-16T00:15:04;94780.50;;;11.31;87.48
3096;BME280;1558;42.700;23.360;2023-04-16T00:17:32;94777.81;;;11.31;86.52
3096;BME280;1558;42.700;23.360;2023-04-16T00:20:00;94783.63;;;11.33;86.75
3096;BME280;1558;42.700;23.360;2023-04-16T00:22:30;94774.03;;;11.20;87.57
3096;BME280;1558;42.700;23.360;2023-04-16T00:24:58;94783.84;;;11.13;88.60
3096;BME280;1558;42.700;23.360;2023-04-16T00:27:26;94786.84;;;11.08;89.22
3096;BME280;1558;42.700;23.360;2023-04-16T00:29:54;94785.16;;;11.03;88.05
3096;BME280;1558;42.700;23.360;2023-04-16T00:32:22;94785.94;;;11.04;87.88
3096;BME280;1558;42.700;23.360;2023-04-16T00:34:50;94789.44;;;11.04;86.81
3096;BME280;1558;42.700;23.360;2023-04-16T00:37:18;94787.41;;;11.01;85.39
3096;BME280;1558;42.700;23.360;2023-04-16T00:39:47;94789.69;;;10.99;85.11
3096;BME280;1558;42.700;23.360;2023-04-16T00:42:15;94776.00;;;10.92;86.36
3096;BME280;1558;42.700;23.360;2023-04-16T00:44:43;94764.41;;;10.76;87.69
3096;BME280;1558;42.700;23.360;2023-04-16T00:47:11;94760.38;;;10.70;88.61
3096;BME280;1558;42.700;23.360;2023-04-16T00:49:40;94775.06;;;10.57;89.69
3096;BME280;1558;42.700;23.360;2023-04-16T00:52:10;94782.28;;;10.53;90.71
3096;BME280;1558;42.700;23.360;2023-04-16T00:54:38;94746.97;;;10.30;92.41
3096;BME280;1558;42.700;23.360;2023-04-16T00:57:08;94774.47;;;10.36;93.42
3096;BME280;1558;42.700;23.360;2023-04-16T00:59:36;94788.66;;;10.20;94.99
3096;BME280;1558;42.700;23.360;2023-04-16T01:02:04;94762.16;;;10.10;96.33
3096;BME280;1558;42.700;23.360;2023-04-16T01:04:33;94775.00;;;10.13;97.57
3096;BME280;1558;42.700;23.360;2023-04-16T01:07:02;94775.88;;;10.05;98.84
3096;BME280;1558;42.700;23.360;2023-04-16T01:09:29;94747.84;;;9.82;98.32
3096;BME280;1558;42.700;23.360;2023-04-16T01:11:57;94754.84;;;9.71;97.17
3096;BME280;1558;42.700;23.360;2023-04-16T01:14:27;94771.56;;;9.77;96.61
3096;BME280;1558;42.700;23.360;2023-04-16T01:16:55;94781.09;;;9.74;95.94
3096;BME280;1558;42.700;23.360;2023-04-16T01:19:23;94763.38;;;9.61;94.90
3096;BME280;1558;42.700;23.360;2023-04-16T01:21:52;94788.47;;;9.77;93.92
3096;BME280;1558;42.700;23.360;2023-04-16T01:24:20;94773.13;;;9.78;92.99
3096;BME280;1558;42.700;23.360;2023-04-16T01:26:48;94775.81;;;9.78;92.57
3096;BME280;1558;42.700;23.360;2023-04-16T01:29:16;94781.53;;;9.76;92.44
3096;BME280;1558;42.700;23.360;2023-04-16T01:31:44;94778.63;;;9.81;91.47
3096;BME280;1558;42.700;23.360;2023-04-16T01:34:13;94732.66;;;9.50;91.26
3096;BME280;1558;42.700;23.360;2023-04-16T01:36:41;94774.78;;;9.82;90.61
3096;BME280;1558;42.700;23.360;2023-04-16T01:39:10;94748.56;;;9.67;89.12
3096;BME280;1558;42.700;23.360;2023-04-16T01:41:41;94770.66;;;9.73;88.74
3096;BME280;1558;42.700;23.360;2023-04-16T01:44:09;94750.56;;;9.70;87.31
3096;BME280;1558;42.700;23.360;2023-04-16T01:46:37;94765.81;;;9.78;87.15
3096;BME280;1558;42.700;23.360;2023-04-16T01:49:06;94762.34;;;9.66;86.74
3096;BME280;1558;42.700;23.360;2023-04-16T01:51:34;94758.78;;;9.62;87.44
3096;BME280;1558;42.700;23.360;2023-04-16T01:54:02;94766.41;;;9.60;88.42
3096;BME280;1558;42.700;23.360;2023-04-16T01:56:33;94764.59;;;9.64;87.74
3096;BME280;1558;42.700;23.360;2023-04-16T01:59:01;94762.38;;;9.53;86.25
3096;BME280;1558;42.700;23.360;2023-04-16T02:01:29;94690.06;;;9.04;86.51
3096;BME280;1558;42.700;23.360;2023-04-16T02:03:57;94709.69;;;9.16;88.29
3096;BME280;1558;42.700;23.360;2023-04-16T02:06:26;94739.84;;;9.46;88.09
3096;BME280;1558;42.700;23.360;2023-04-16T02:08:54;94762.50;;;9.57;88.57
3096;BME280;1558;42.700;23.360;2023-04-16T02:11:22;94743.66;;;9.45;88.70
3096;BME280;1558;42.700;23.360;2023-04-16T02:13:51;94762.03;;;9.43;89.96
3096;BME280;1558;42.700;23.360;2023-04-16T02:16:19;94773.38;;;9.36;91.11
3096;BME280;1558;42.700;23.360;2023-04-16T02:18:47;94746.13;;;9.26;92.59
3096;BME280;1558;42.700;23.360;2023-04-16T02:21:15;94751.72;;;9.33;93.61
3096;BME280;1558;42.700;23.360;2023-04-16T02:23:43;94730.75;;;9.26;92.95
3096;BME280;1558;42.700;23.360;2023-04-16T02:26:13;94755.75;;;9.39;93.03
3096;BME280;1558;42.700;23.360;2023-04-16T02:28:41;94751.28;;;9.43;92.72
3096;BME280;1558;42.700;23.360;2023-04-16T02:31:11;94756.00;;;9.46;92.91
3096;BME280;1558;42.700;23.360;2023-04-16T02:33:40;94727.06;;;9.31;92.39
3096;BME280;1558;42.700;23.360;2023-04-16T02:36:08;94762.28;;;9.50;91.65
3096;BME280;1558;42.700;23.360;2023-04-16T02:38:38;94752.97;;;9.47;90.23
3096;BME280;1558;42.700;23.360;2023-04-16T02:41:06;94747.66;;;9.51;90.44
3096;BME280;1558;42.700;23.360;2023-04-16T02:43:34;94754.84;;;9.47;90.65
3096;BME280;1558;42.700;23.360;2023-04-16T02:46:02;94746.22;;;9.41;90.28
3096;BME280;1558;42.700;23.360;2023-04-16T02:48:32;94749.25;;;9.40;91.45
3096;BME280;1558;42.700;23.360;2023-04-16T02:51:00;94739.59;;;9.39;91.99
3096;BME280;1558;42.700;23.360;2023-04-16T02:53:27;94717.88;;;9.20;91.66
3096;BME280;1558;42.700;23.360;2023-04-16T02:55:56;94741.09;;;9.36;92.47
3096;BME280;1558;42.700;23.360;2023-04-16T02:58:24;94738.63;;;9.31;92.16
3096;BME280;1558;42.700;23.360;2023-04-16T03:00:53;94743.22;;;9.31;92.70
3096;BME280;1558;42.700;23.360;2023-04-16T03:03:21;94739.84;;;9.34;90.87
3096;BME280;1558;42.700;23.360;2023-04-16T03:05:51;94736.47;;;9.37;90.55
3096;BME280;1558;42.700;23.360;2023-04-16T03:08:19;94737.16;;;9.34;90.12
3096;BME280;1558;42.700;23.360;2023-04-16T03:10:46;94744.88;;;9.35;89.12
3096;BME280;1558;42.700;23.360;2023-04-16T03:13:14;94739.06;;;9.33;88.75
3096;BME280;1558;42.700;23.360;2023-04-16T03:15:47;94739.28;;;9.28;88.77
3096;BME280;1558;42.700;23.360;2023-04-16T03:18:15;94709.59;;;9.13;89.10
3096;BME280;1558;42.700;23.360;2023-04-16T03:20:43;94750.38;;;9.39;88.91
3096;BME280;1558;42.700;23.360;2023-04-16T03:23:12;94738.72;;;9.35;89.63
3096;BME280;1558;42.700;23.360;2023-04-16T03:25:40;94749.69;;;9.42;89.92
3096;BME280;1558;42.700;23.360;2023-04-16T03:28:12;94752.75;;;9.40;91.18
3096;BME280;1558;42.700;23.360;2023-04-16T03:30:40;94753.41;;;9.37;91.31
3096;BME280;1558;42.700;23.360;2023-04-16T03:33:08;94742.41;;;9.30;91.09
3096;BME280;1558;42.700;23.360;2023-04-16T03:35:36;94758.25;;;9.20;91.04
3096;BME280;1558;42.700;23.360;2023-04-16T03:38:04;94734.09;;;8.99;90.38
3096;BME280;1558;42.700;23.360;2023-04-16T03:40:33;94754.09;;;9.10;88.35
3096;BME280;1558;42.700;23.360;2023-04-16T03:43:01;94760.00;;;9.04;87.92
3096;BME280;1558;42.700;23.360;2023-04-16T03:45:29;94744.19;;;8.90;87.75
3096;BME280;1558;42.700;23.360;2023-04-16T03:47:57;94759.66;;;8.93;86.42
3096;BME280;1558;42.700;23.360;2023-04-16T03:50:25;94758.88;;;8.93;86.26
3096;BME280;1558;42.700;23.360;2023-04-16T03:52:53;94756.38;;;8.88;86.59
3096;BME280;1558;42.700;23.360;2023-04-16T03:55:21;94759.19;;;8.79;86.44
3096;BME280;1558;42.700;23.360;2023-04-16T03:57:50;94713.72;;;8.41;86.20
3096;BME280;1558;42.700;23.360;2023-04-16T04:00:18;94769.59;;;8.80;85.80
3096;BME280;1558;42.700;23.360;2023-04-16T04:02:46;94715.72;;;8.44;84.72
3096;BME280;1558;42.700;23.360;2023-04-16T04:05:15;94768.00;;;8.79;85.61
3096;BME280;1558;42.700;23.360;2023-04-16T04:07:43;94766.25;;;8.83;84.49
3096;BME280;1558;42.700;23.360;2023-04-16T04:10:11;94766.78;;;8.89;85.25
3096;BME280;1558;42.700;23.360;2023-04-16T04:12:39;94777.09;;;8.87;84.78
3096;BME280;1558;42.700;23.360;2023-04-16T04:15:10;94743.09;;;8.58;84.53
3096;BME280;1558;42.700;23.360;2023-04-16T04:17:38;94777.59;;;9.01;85.37
3096;BME280;1558;42.700;23.360;2023-04-16T04:20:07;94779.97;;;9.15;84.73
3096;BME280;1558;42.700;23.360;2023-04-16T04:22:35;94765.94;;;9.09;85.12
3096;BME280;1558;42.700;23.360;2023-04-16T04:25:03;94734.44;;;8.98;84.29
3096;BME280;1558;42.700;23.360;2023-04-16T04:27:31;94775.28;;;9.24;83.85
3096;BME280;1558;42.700;23.360;2023-04-16T04:29:59;94788.50;;;9.29;83.62
3096;BME280;1558;42.700;23.360;2023-04-16T04:32:29;94794.34;;;9.31;83.64
3096;BME280;1558;42.700;23.360;2023-04-16T04:34:58;94706.84;;;8.76;82.60
3096;BME280;1558;42.700;23.360;2023-04-16T04:37:28;94803.50;;;9.30;82.54
3096;BME280;1558;42.700;23.360;2023-04-16T04:39:56;94794.78;;;9.33;82.14
3096;BME280;1558;42.700;23.360;2023-04-16T04:42:24;94799.72;;;9.31;81.75
3096;BME280;1558;42.700;23.360;2023-04-16T04:44:52;94783.13;;;9.29;80.95
3096;BME280;1558;42.700;23.360;2023-04-16T04:47:20;94802.41;;;9.43;81.15
3096;BME280;1558;42.700;23.360;2023-04-16T04:49:50;94801.50;;;9.39;80.29
3096;BME280;1558;42.700;23.360;2023-04-16T04:52:18;94808.91;;;9.42;80.66
3096;BME280;1558;42.700;23.360;2023-04-16T04:54:47;94758.09;;;9.16;80.59
3096;BME280;1558;42.700;23.360;2023-04-16T04:57:15;94803.22;;;9.43;80.36
3096;BME280;1558;42.700;23.360;2023-04-16T04:59:43;94807.47;;;9.44;80.26
3096;BME280;1558;42.700;23.360;2023-04-16T05:02:11;94806.78;;;9.47;80.12
3096;BME280;1558;42.700;23.360;2023-04-16T05:04:39;94812.06;;;9.44;79.92
3096;BME280;1558;42.700;23.360;2023-04-16T05:07:08;94797.91;;;9.35;79.69
3096;BME280;1558;42.700;23.360;2023-04-16T05:09:36;94806.22;;;9.42;80.19
3096;BME280;1558;42.700;23.360;2023-04-16T05:12:04;94751.72;;;9.09;80.37
3096;BME280;1558;42.700;23.360;2023-04-16T05:14:33;94780.66;;;9.36;80.02
3096;BME280;1558;42.700;23.360;2023-04-16T05:17:01;94800.75;;;9.50;79.79
3096;BME280;1558;42.700;23.360;2023-04-16T05:19:29;94798.81;;;9.51;79.68
3096;BME280;1558;42.700;23.360;2023-04-16T05:21:58;94789.97;;;9.63;80.15
3096;BME280;1558;42.700;23.360;2023-04-16T05:24:29;94752.84;;;9.44;79.74
3096;BME280;1558;42.700;23.360;2023-04-16T05:26:57;94805.34;;;9.74;80.36
3096;BME280;1558;42.700;23.360;2023-04-16T05:29:25;94793.44;;;9.75;80.05
3096;BME280;1558;42.700;23.360;2023-04-16T05:31:53;94770.56;;;9.69;80.13
3096;BME280;1558;42.700;23.360;2023-04-16T05:34:21;94801.03;;;9.97;79.94
3096;BME280;1558;42.700;23.360;2023-04-16T05:36:49;94796.09;;;9.99;79.08
3096;BME280;1558;42.700;23.360;2023-04-16T05:39:17;94802.56;;;10.10;77.89
3096;BME280;1558;42.700;23.360;2023-04-16T05:41:46;94758.16;;;9.92;76.93
3096;BME280;1558;42.700;23.360;2023-04-16T05:44:14;94796.97;;;10.15;76.80
3096;BME280;1558;42.700;23.360;2023-04-16T05:46:42;94800.38;;;10.12;76.01
3096;BME280;1558;42.700;23.360;2023-04-16T05:49:10;94800.59;;;10.19;76.49
3096;BME280;1558;42.700;23.360;2023-04-16T05:51:38;94784.31;;;10.16;76.42
3096;BME280;1558;42.700;23.360;2023-04-16T05:54:06;94792.00;;;10.30;76.13
3096;BME280;1558;42.700;23.360;2023-04-16T05:56:34;94805.28;;;10.23;76.25
3096;BME280;1558;42.700;23.360;2023-04-16T05:59:04;94805.72;;;10.25;76.66
3096;BME280;1558;42.700;23.360;2023-04-16T06:01:33;94799.22;;;10.26;76.51
3096;BME280;1558;42.700;23.360;2023-04-16T06:04:02;94792.72;;;10.27;77.35
3096;BME280;1558;42.700;23.360;2023-04-16T06:06:30;94805.66;;;10.49;77.31
3096;BME280;1558;42.700;23.360;2023-04-16T06:08:58;94805.41;;;10.54;76.90
3096;BME280;1558;42.700;23.360;2023-04-16T06:11:28;94790.50;;;10.44;77.10
3096;BME280;1558;42.700;23.360;2023-04-16T06:13:56;94801.44;;;10.63;77.03
3096;BME280;1558;42.700;23.360;2023-04-16T06:16:25;94804.38;;;10.86;77.03
3096;BME280;1558;42.700;23.360;2023-04-16T06:18:53;94799.78;;;11.02;76.62
3096;BME280;1558;42.700;23.360;2023-04-16T06:21:22;94797.38;;;11.28;76.64
3096;BME280;1558;42.700;23.360;2023-04-16T06:23:50;94790.94;;;11.80;75.36
3096;BME280;1558;42.700;23.360;2023-04-16T06:26:18;94781.97;;;12.10;73.52
3096;BME280;1558;42.700;23.360;2023-04-16T06:28:46;94787.41;;;12.30;73.36
3096;BME280;1558;42.700;23.360;2023-04-16T06:31:14;94767.25;;;12.27;72.74
3096;BME280;1558;42.700;23.360;2023-04-16T06:33:44;94791.75;;;12.53;71.99
3096;BME280;1558;42.700;23.360;2023-04-16T06:36:12;94729.63;;;12.18;70.92
3096;BME280;1558;42.700;23.360;2023-04-16T06:38:40;94791.06;;;12.56;71.66
3096;BME280;1558;42.700;23.360;2023-04-16T06:41:08;94784.94;;;12.59;70.96
3096;BME280;1558;42.700;23.360;2023-04-16T06:43:36;94783.91;;;12.86;71.46
3096;BME280;1558;42.700;23.360;2023-04-16T06:46:04;94790.28;;;13.36;70.46
3096;BME280;1558;42.700;23.360;2023-04-16T06:48:32;94779.38;;;13.81;69.09
3096;BME280;1558;42.700;23.360;2023-04-16T06:51:02;94789.91;;;14.35;69.00
3096;BME280;1558;42.700;23.360;2023-04-16T06:53:30;94774.75;;;14.34;67.21
3096;BME280;1558;42.700;23.360;2023-04-16T06:55:58;94784.78;;;14.04;67.86
3096;BME280;1558;42.700;23.360;2023-04-16T06:58:26;94791.50;;;13.87;68.15
3096;BME280;1558;42.700;23.360;2023-04-16T07:00:55;94766.06;;;13.69;68.90
3096;BME280;1558;42.700;23.360;2023-04-16T07:03:23;94791.88;;;13.86;69.10
3096;BME280;1558;42.700;23.360;2023-04-16T07:05:52;94764.09;;;13.96;69.82
3096;BME280;1558;42.700;23.360;2023-04-16T07:08:21;94773.84;;;14.26;69.30
3096;BME280;1558;42.700;23.360;2023-04-16T07:10:52;94783.41;;;14.43;69.52
3096;BME280;1558;42.700;23.360;2023-04-16T07:13:20;94728.22;;;14.06;69.11
3096;BME280;1558;42.700;23.360;2023-04-16T07:15:48;94777.34;;;14.27;69.69
3096;BME280;1558;42.700;23.360;2023-04-16T07:18:17;94782.00;;;14.00;69.95
3096;BME280;1558;42.700;23.360;2023-04-16T07:20:46;94785.84;;;13.73;70.53
3096;BME280;1558;42.700;23.360;2023-04-16T07:23:14;94792.22;;;13.84;70.55
3096;BME280;1558;42.700;23.360;2023-04-16T07:25:44;94788.31;;;14.08;71.00
3096;BME280;1558;42.700;23.360;2023-04-16T07:28:12;94785.19;;;14.06;70.37
3096;BME280;1558;42.700;23.360;2023-04-16T07:30:42;94784.09;;;14.37;69.36
3096;BME280;1558;42.700;23.360;2023-04-16T07:33:10;94752.13;;;14.26;68.39
3096;BME280;1558;42.700;23.360;2023-04-16T07:35:38;94776.13;;;14.51;69.11
3096;BME280;1558;42.700;23.360;2023-04-16T07:38:06;94783.41;;;14.73;68.35
3096;BME280;1558;42.700;23.360;2023-04-16T07:40:35;94788.75;;;14.99;67.69
3096;BME280;1558;42.700;23.360;2023-04-16T07:43:05;94776.69;;;14.34;67.87
3096;BME280;1558;42.700;23.360;2023-04-16T07:45:33;94761.94;;;14.64;68.84
3096;BME280;1558;42.700;23.360;2023-04-16T07:48:02;94775.88;;;14.93;67.58
3096;BME280;1558;42.700;23.360;2023-04-16T07:50:31;94776.22;;;14.91;67.63
3096;BME280;1558;42.700;23.360;2023-04-16T07:52:59;94782.38;;;15.21;66.91
3096;BME280;1558;42.700;23.360;2023-04-16T07:55:27;94775.16;;;15.39;66.30
3096;BME280;1558;42.700;23.360;2023-04-16T07:57:55;94772.84;;;15.41;65.95
3096;BME280;1558;42.700;23.360;2023-04-16T08:00:24;94780.59;;;15.39;65.83
3096;BME280;1558;42.700;23.360;2023-04-16T08:02:53;94751.59;;;15.10;66.26
3096;BME280;1558;42.700;23.360;2023-04-16T08:05:22;94773.59;;;15.38;66.52
3096;BME280;1558;42.700;23.360;2023-04-16T08:07:50;94768.59;;;15.84;66.58
3096;BME280;1558;42.700;23.360;2023-04-16T08:10:18;94764.31;;;16.48;64.45
3096;BME280;1558;42.700;23.360;2023-04-16T08:12:46;94755.19;;;17.02;62.71
3096;BME280;1558;42.700;23.360;2023-04-16T08:15:14;94766.94;;;17.13;60.96
3096;BME280;1558;42.700;23.360;2023-04-16T08:17:43;94766.63;;;17.78;59.55
3096;BME280;1558;42.700;23.360;2023-04-16T08:20:11;94770.06;;;18.53;57.40
3096;BME280;1558;42.700;23.360;2023-04-16T08:22:44;94764.09;;;18.89;55.64
3096;BME280;1558;42.700;23.360;2023-04-16T08:25:13;94758.72;;;19.51;53.50
3096;BME280;1558;42.700;23.360;2023-04-16T08:27:41;94753.28;;;19.44;51.96
3096;BME280;1558;42.700;23.360;2023-04-16T08:30:09;94754.81;;;18.66;52.46
3096;BME280;1558;42.700;23.360;2023-04-16T08:32:37;94759.22;;;18.10;53.67
3096;BME280;1558;42.700;23.360;2023-04-16T08:35:08;94755.66;;;18.35;53.74
3096;BME280;1558;42.700;23.360;2023-04-16T08:37:36;94752.88;;;18.59;53.17
3096;BME280;1558;42.700;23.360;2023-04-16T08:40:05;94747.34;;;18.77;52.90
3096;BME280;1558;42.700;23.360;2023-04-16T08:42:40;94743.44;;;18.85;52.30
3096;BME280;1558;42.700;23.360;2023-04-16T08:45:14;94749.75;;;19.44;50.98
3096;BME280;1558;42.700;23.360;2023-04-16T08:47:45;94736.97;;;19.20;51.51
3096;BME280;1558;42.700;23.360;2023-04-16T08:50:16;94745.09;;;19.37;50.11
3096;BME280;1558;42.700;23.360;2023-04-16T08:52:48;94739.38;;;20.17;49.78
3096;BME280;1558;42.700;23.360;2023-04-16T08:55:18;94732.75;;;20.55;48.30
3096;BME280;1558;42.700;23.360;2023-04-16T08:57:50;94730.28;;;20.64;47.02
3096;BME280;1558;42.700;23.360;2023-04-16T09:00:20;94711.69;;;19.64;48.37
3096;BME280;1558;42.700;23.360;2023-04-16T09:02:48;94727.56;;;20.27;47.90
3096;BME280;1558;42.700;23.360;2023-04-16T09:05:19;94682.03;;;19.58;47.75
3096;BME280;1558;42.700;23.360;2023-04-16T09:07:51;94717.09;;;19.71;48.64
3096;BME280;1558;42.700;23.360;2023-04-16T09:10:20;94728.16;;;19.56;48.55
3096;BME280;1558;42.700;23.360;2023-04-16T09:12:48;94718.41;;;20.00;48.22
3096;BME280;1558;42.700;23.360;2023-04-16T09:15:19;94705.53;;;19.97;47.12
3096;BME280;1558;42.700;23.360;2023-04-16T09:17:47;94711.25;;;19.69;47.67
3096;BME280;1558;42.700;23.360;2023-04-16T09:20:15;94721.44;;;20.09;48.11
3096;BME280;1558;42.700;23.360;2023-04-16T09:22:45;94719.09;;;20.11;46.30
3096;BME280;1558;42.700;23.360;2023-04-16T09:25:14;94713.72;;;19.56;47.49
3096;BME280;1558;42.700;23.360;2023-04-16T09:27:42;94709.69;;;20.12;47.48
3096;BME280;1558;42.700;23.360;2023-04-16T09:30:21;94706.22;;;20.45;46.84
3096;BME280;1558;42.700;23.360;2023-04-16T09:32:50;94712.84;;;20.81;46.41
3096;BME280;1558;42.700;23.360;2023-04-16T09:35:19;94724.94;;;21.44;46.03
3096;BME280;1558;42.700;23.360;2023-04-16T09:37:56;94714.06;;;22.76;42.83
3096;BME280;1558;42.700;23.360;2023-04-16T09:40:25;94713.38;;;22.30;43.48
3096;BME280;1558;42.700;23.360;2023-04-16T09:42:56;94688.16;;;21.65;44.23
3096;BME280;1558;42.700;23.360;2023-04-16T09:45:30;94713.75;;;21.02;44.95
3096;BME280;1558;42.700;23.360;2023-04-16T09:48:02;94709.41;;;21.08;44.70
3096;BME280;1558;42.700;23.360;2023-04-16T09:50:31;94709.66;;;21.17;44.58
3096;BME280;1558;42.700;23.360;2023-04-16T09:53:01;94674.00;;;21.17;44.03
3096;BME280;1558;42.700;23.360;2023-04-16T09:55:30;94699.53;;;21.40;43.76
3096;BME280;1558;42.700;23.360;2023-04-16T09:57:59;94700.31;;;20.80;43.61
3096;BME280;1558;42.700;23.360;2023-04-16T10:00:28;94699.44;;;20.19;44.04
3096;BME280;1558;42.700;23.360;2023-04-16T10:03:03;94698.34;;;19.73;44.98
3096;BME280;1558;42.700;23.360;2023-04-16T10:05:33;94656.13;;;20.45;44.92
3096;BME280;1558;42.700;23.360;2023-04-16T10:08:09;94688.38;;;20.34;43.73
3096;BME280;1558;42.700;23.360;2023-04-16T10:10:37;94684.97;;;20.19;44.92
3096;BME280;1558;42.700;23.360;2023-04-16T10:13:06;94662.88;;;19.99;45.11
3096;BME280;1558;42.700;23.360;2023-04-16T10:15:34;94680.56;;;19.91;45.87
3096;BME280;1558;42.700;23.360;2023-04-16T10:18:03;94676.81;;;20.12;45.30
3096;BME280;1558;42.700;23.360;2023-04-16T10:20:32;94666.25;;;19.22;44.77
3096;BME280;1558;42.700;23.360;2023-04-16T10:23:02;94665.16;;;19.12;46.08
3096;BME280;1558;42.700;23.360;2023-04-16T10:25:31;94676.03;;;19.23;45.14
3096;BME280;1558;42.700;23.360;2023-04-16T10:27:59;94673.75;;;19.66;45.09
3096;BME280;1558;42.700;23.360;2023-04-16T10:30:27;94658.22;;;19.55;44.79
3096;BME280;1558;42.700;23.360;2023-04-16T10:32:56;94676.72;;;19.37;45.34
3096;BME280;1558;42.700;23.360;2023-04-16T10:35:26;94662.00;;;19.17;45.06
3096;BME280;1558;42.700;23.360;2023-04-16T10:37:55;94668.06;;;19.42;45.25
3096;BME280;1558;42.700;23.360;2023-04-16T10:40:26;94642.91;;;19.07;44.81
3096;BME280;1558;42.700;23.360;2023-04-16T10:42:55;94637.97;;;19.87;43.74
3096;BME280;1558;42.700;23.360;2023-04-16T10:45:30;94618.75;;;20.88;41.31
3096;BME280;1558;42.700;23.360;2023-04-16T10:48:05;94632.66;;;22.40;39.59
3096;BME280;1558;42.700;23.360;2023-04-16T10:50:34;94672.88;;;23.61;37.60
3096;BME280;1558;42.700;23.360;2023-04-16T10:53:23;94657.22;;;23.90;36.91
3096;BME280;1558;42.700;23.360;2023-04-16T10:56:09;94659.28;;;23.86;37.07
3096;BME280;1558;42.700;23.360;2023-04-16T10:58:38;94658.09;;;23.54;38.22
3096;BME280;1558;42.700;23.360;2023-04-16T11:01:10;94652.91;;;23.73;37.78
3096;BME280;1558;42.700;23.360;2023-04-16T11:03:45;94641.00;;;24.24;36.75
3096;BME280;1558;42.700;23.360;2023-04-16T11:06:14;94642.53;;;23.64;35.94
3096;BME280;1558;42.700;23.360;2023-04-16T11:08:44;94633.25;;;22.51;38.28
3096;BME280;1558;42.700;23.360;2023-04-16T11:11:22;94638.94;;;22.40;38.87
3096;BME280;1558;42.700;23.360;2023-04-16T11:13:54;94602.94;;;21.72;39.35
3096;BME280;1558;42.700;23.360;2023-04-16T11:16:24;94633.22;;;21.42;40.42
3096;BME280;1558;42.700;23.360;2023-04-16T11:18:54;94636.53;;;21.07;41.18
3096;BME280;1558;42.700;23.360;2023-04-16T11:21:22;94619.25;;;20.53;41.65
3096;BME280;1558;42.700;23.360;2023-04-16T11:23:52;94629.97;;;20.03;42.85
3096;BME280;1558;42.700;23.360;2023-04-16T11:26:26;94625.44;;;19.89;43.56
3096;BME280;1558;42.700;23.360;2023-04-16T11:28:54;94611.41;;;19.84;44.00
3096;BME280;1558;42.700;23.360;2023-04-16T11:31:23;94619.84;;;20.00;44.10
3096;BME280;1558;42.700;23.360;2023-04-16T11:33:54;94608.16;;;19.96;44.14
3096;BME280;1558;42.700;23.360;2023-04-16T11:36:23;94613.22;;;19.97;44.23
3096;BME280;1558;42.700;23.360;2023-04-16T11:39:00;94584.13;;;19.77;44.66
3096;BME280;1558;42.700;23.360;2023-04-16T11:41:30;94601.84;;;20.36;44.69
3096;BME280;1558;42.700;23.360;2023-04-16T11:43:58;94597.63;;;20.28;43.88
3096;BME280;1558;42.700;23.360;2023-04-16T11:46:37;94590.41;;;20.11;43.89
3096;BME280;1558;42.700;23.360;2023-04-16T11:49:05;94593.47;;;19.79;44.98
3096;BME280;1558;42.700;23.360;2023-04-16T11:51:38;94588.53;;;20.01;44.78
3096;BME280;1558;42.700;23.360;2023-04-16T11:54:07;94568.25;;;19.95;43.83
3096;BME280;1558;42.700;23.360;2023-04-16T11:56:44;94596.31;;;20.06;43.49
3096;BME280;1558;42.700;23.360;2023-04-16T11:59:15;94579.13;;;19.68;44.15
3096;BME280;1558;42.700;23.360;2023-04-16T12:01:46;94584.38;;;20.23;43.81
3096;BME280;1558;42.700;23.360;2023-04-16T12:04:16;94576.78;;;20.04;43.20
3096;BME280;1558;42.700;23.360;2023-04-16T12:07:08;94566.91;;;20.10;43.94
3096;BME280;1558;42.700;23.360;2023-04-16T12:09:37;94565.75;;;20.94;43.72
3096;BME280;1558;42.700;23.360;2023-04-16T12:12:26;94561.06;;;21.22;42.57
3096;BME280;1558;42.700;23.360;2023-04-16T12:14:57;94560.34;;;21.18;42.41
3096;BME280;1558;42.700;23.360;2023-04-16T12:17:28;94511.34;;;20.93;42.75
3096;BME280;1558;42.700;23.360;2023-04-16T12:19:58;94549.19;;;21.28;42.63
3096;BME280;1558;42.700;23.360;2023-04-16T12:22:27;94546.56;;;21.21;42.30
3096;BME280;1558;42.700;23.360;2023-04-16T12:25:00;94546.22;;;21.19;42.09
3096;BME280;1558;42.700;23.360;2023-04-16T12:27:43;94517.97;;;21.42;42.42
3096;BME280;1558;42.700;23.360;2023-04-16T12:30:13;94537.31;;;21.35;42.77
3096;BME280;1558;42.700;23.360;2023-04-16T12:32:43;94535.47;;;21.05;42.38
3096;BME280;1558;42.700;23.360;2023-04-16T12:35:11;94516.63;;;20.80;42.38
3096;BME280;1558;42.700;23.360;2023-04-16T12:37:40;94538.28;;;20.48;42.30
3096;BME280;1558;42.700;23.360;2023-04-16T12:40:08;94534.78;;;20.14;42.95
3096;BME280;1558;42.700;23.360;2023-04-16T12:42:37;94532.66;;;19.95;44.33
3096;BME280;1558;42.700;23.360;2023-04-16T12:45:07;94519.94;;;19.81;44.31
3096;BME280;1558;42.700;23.360;2023-04-16T12:47:35;94524.47;;;19.95;44.35
3096;BME280;1558;42.700;23.360;2023-04-16T12:50:03;94527.09;;;19.72;44.49
3096;BME280;1558;42.700;23.360;2023-04-16T12:52:31;94525.75;;;19.49;45.75
3096;BME280;1558;42.700;23.360;2023-04-16T12:55:00;94522.94;;;19.56;46.12
3096;BME280;1558;42.700;23.360;2023-04-16T12:57:28;94530.47;;;19.49;46.33
3096;BME280;1558;42.700;23.360;2023-04-16T12:59:57;94520.53;;;19.25;46.61
3096;BME280;1558;42.700;23.360;2023-04-16T13:02:29;94518.50;;;19.32;46.68
3096;BME280;1558;42.700;23.360;2023-04-16T13:04:58;94503.56;;;19.40;46.60
3096;BME280;1558;42.700;23.360;2023-04-16T13:07:26;94494.31;;;19.65;45.55
3096;BME280;1558;42.700;23.360;2023-04-16T13:09:54;94508.44;;;19.59;45.49
3096;BME280;1558;42.700;23.360;2023-04-16T13:12:22;94497.78;;;19.31;45.42
3096;BME280;1558;42.700;23.360;2023-04-16T13:14:50;94491.34;;;19.11;45.90
3096;BME280;1558;42.700;23.360;2023-04-16T13:17:18;94485.13;;;19.11;45.92
3096;BME280;1558;42.700;23.360;2023-04-16T13:19:48;94497.25;;;19.06;46.56
3096;BME280;1558;42.700;23.360;2023-04-16T13:22:15;94484.91;;;18.91;47.17
3096;BME280;1558;42.700;23.360;2023-04-16T13:24:44;94473.72;;;18.75;46.51